Time,TemperatureF,DewpointF,PressureIn,WindDirection,WindDirectionDegrees,WindSpeedMPH,WindSpeedGustMPH,Humidity,HourlyPrecipIn,Conditions,Clouds,dailyrainin,SoftwareType,DateUTC
2013-07-03 00:00:00,77.4,72.2,29.98,North,0,1.0,9.0,84,0.00,,,-99.99,WeatherLink 5.7,2013-07-03 04:00:00,
2013-07-03 00:15:00,77.4,72.2,29.97,North,0,1.0,9.0,84,0.00,,,-99.99,WeatherLink 5.7,2013-07-03 04:15:00,
2013-07-03 00:30:00,77.4,71.8,29.97,North,0,1.0,8.0,83,0.00,,,-99.99,WeatherLink 5.7,2013-07-03 04:30:00,
2013-07-03 00:45:00,77.4,72.2,29.97,North,0,0.0,5.0,84,0.00,,,-99.99,WeatherLink 5.7,2013-07-03 04:45:00,
2013-07-03 01:00:00,77.2,72.0,29.97,North,0,0.0,7.0,84,0.00,,,-99.99,WeatherLink 5.7,2013-07-03 05:00:00,
2013-07-03 01:15:00,77.1,71.9,29.97,North,0,0.0,7.0,84,0.00,,,-99.99,WeatherLink 5.7,2013-07-03 05:15:00,
2013-07-03 01:30:00,77.0,72.1,29.97,North,0,0.0,2.0,85,0.00,,,-99.99,WeatherLink 5.7,2013-07-03 05:30:00,
2013-07-03 01:45:00,76.8,71.9,29.97,North,0,1.0,12.0,85,0.00,,,-99.99,WeatherLink 5.7,2013-07-03 05:45:00,
2013-07-03 02:00:00,76.6,71.7,29.97,North,0,0.0,1.0,85,0.00,,,-99.99,WeatherLink 5.7,2013-07-03 06:00:00,
2013-07-03 02:15:00,76.3,71.5,29.96,North,0,0.0,5.0,85,0.00,,,-99.99,WeatherLink 5.7,2013-07-03 06:15:00,
2013-07-03 02:30:00,76.1,71.3,29.96,North,-999,0.0,0.0,85,0.00,,,-99.99,WeatherLink 5.7,2013-07-03 06:30:00,
2013-07-03 02:45:00,75.9,71.1,29.96,North,-999,0.0,0.0,85,0.00,,,-99.99,WeatherLink 5.7,2013-07-03 06:45:00,
2013-07-03 03:00:00,75.6,70.8,29.96,North,-999,0.0,0.0,85,0.00,,,-99.99,WeatherLink 5.7,2013-07-03 07:00:00,
2013-07-03 03:15:00,75.4,70.6,29.95,North,-999,0.0,0.0,85,0.00,,,-99.99,WeatherLink 5.7,2013-07-03 07:15:00,
2013-07-03 03:30:00,75.3,70.8,29.96,North,0,0.0,4.0,86,0.00,,,-99.99,WeatherLink 5.7,2013-07-03 07:30:00,
2013-07-03 03:45:00,75.3,70.8,29.95,North,0,0.0,9.0,86,0.00,,,-99.99,WeatherLink 5.7,2013-07-03 07:45:00,
2013-07-03 04:00:00,75.4,70.9,29.96,North,0,0.0,9.0,86,0.00,,,-99.99,WeatherLink 5.7,2013-07-03 08:00:00,
2013-07-03 04:15:00,75.4,70.9,29.96,North,0,0.0,8.0,86,0.00,,,-99.99,WeatherLink 5.7,2013-07-03 08:15:00,
2013-07-03 04:30:00,75.4,70.9,29.96,North,0,0.0,5.0,86,0.00,,,-99.99,WeatherLink 5.7,2013-07-03 08:30:00,
2013-07-03 04:45:00,75.4,70.9,29.95,North,0,0.0,4.0,86,0.00,,,-99.99,WeatherLink 5.7,2013-07-03 08:45:00,
2013-07-03 05:00:00,75.4,71.3,29.95,North,0,0.0,5.0,87,0.00,,,-99.99,WeatherLink 5.7,2013-07-03 09:00:00,
2013-07-03 05:15:00,75.5,71.4,29.95,North,0,0.0,9.0,87,0.00,,,-99.99,WeatherLink 5.7,2013-07-03 09:15:00,
2013-07-03 05:30:00,75.6,71.1,29.95,North,0,1.0,6.0,86,0.00,,,-99.99,WeatherLink 5.7,2013-07-03 09:30:00,
2013-07-03 05:45:00,75.8,71.7,29.96,North,0,0.0,6.0,87,0.00,,,-99.99,WeatherLink 5.7,2013-07-03 09:45:00,
2013-07-03 06:00:00,76.0,71.8,29.95,North,0,1.0,7.0,87,0.00,,,-99.99,WeatherLink 5.7,2013-07-03 10:00:00,
2013-07-03 06:15:00,76.1,71.9,29.96,North,0,0.0,6.0,87,0.00,,,-99.99,WeatherLink 5.7,2013-07-03 10:15:00,
2013-07-03 06:30:00,76.3,72.1,29.96,North,0,0.0,9.0,87,0.00,,,-99.99,WeatherLink 5.7,2013-07-03 10:30:00,
2013-07-03 06:45:00,76.3,72.1,29.97,North,0,0.0,7.0,87,0.00,,,-99.99,WeatherLink 5.7,2013-07-03 10:45:00,
2013-07-03 07:00:00,76.6,72.4,29.97,North,0,1.0,9.0,87,0.00,,,-99.99,WeatherLink 5.7,2013-07-03 11:00:00,
2013-07-03 07:15:00,76.8,72.6,29.97,North,0,0.0,7.0,87,0.00,,,-99.99,WeatherLink 5.7,2013-07-03 11:15:00,
2013-07-03 07:30:00,77.1,72.9,29.98,North,0,0.0,5.0,87,0.00,,,-99.99,WeatherLink 5.7,2013-07-03 11:30:00,
2013-07-03 07:45:00,77.3,73.1,29.99,North,0,1.0,7.0,87,0.00,,,-99.99,WeatherLink 5.7,2013-07-03 11:45:00,
2013-07-03 08:00:00,77.4,73.2,29.99,North,0,0.0,7.0,87,0.00,,,-99.99,WeatherLink 5.7,2013-07-03 12:00:00,
2013-07-03 08:15:00,77.8,73.6,29.99,North,0,0.0,9.0,87,0.00,,,-99.99,WeatherLink 5.7,2013-07-03 12:15:00,
2013-07-03 08:30:00,78.6,74.1,29.99,North,0,1.0,9.0,86,0.00,,,-99.99,WeatherLink 5.7,2013-07-03 12:30:00,
2013-07-03 08:45:00,79.0,74.1,30.00,North,0,1.0,11.0,85,0.00,,,-99.99,WeatherLink 5.7,2013-07-03 12:45:00,
2013-07-03 09:00:00,79.3,74.4,30.00,North,0,1.0,13.0,85,0.00,,,-99.99,WeatherLink 5.7,2013-07-03 13:00:00,
2013-07-03 09:15:00,79.7,74.4,30.00,North,0,1.0,10.0,84,0.00,,,-99.99,WeatherLink 5.7,2013-07-03 13:15:00,
2013-07-03 09:30:00,80.0,74.7,30.00,North,0,0.0,6.0,84,0.00,,,-99.99,WeatherLink 5.7,2013-07-03 13:30:00,
2013-07-03 09:45:00,80.6,75.0,30.00,North,0,1.0,10.0,83,0.00,,,-99.99,WeatherLink 5.7,2013-07-03 13:45:00,
2013-07-03 10:00:00,81.1,75.8,30.00,North,0,1.0,10.0,84,0.00,,,-99.99,WeatherLink 5.7,2013-07-03 14:00:00,
2013-07-03 10:15:00,81.5,75.5,30.00,North,0,0.0,8.0,82,0.00,,,-99.99,WeatherLink 5.7,2013-07-03 14:15:00,
2013-07-03 10:30:00,81.9,75.5,30.00,North,0,2.0,12.0,81,0.00,,,-99.99,WeatherLink 5.7,2013-07-03 14:30:00,
2013-07-03 10:45:00,82.1,75.3,30.00,North,0,2.0,13.0,80,0.00,,,-99.99,WeatherLink 5.7,2013-07-03 14:45:00,
2013-07-03 11:00:00,82.6,75.4,30.00,North,0,1.0,12.0,79,0.00,,,-99.99,WeatherLink 5.7,2013-07-03 15:00:00,
2013-07-03 11:15:00,83.5,75.9,30.00,North,0,1.0,17.0,78,0.00,,,-99.99,WeatherLink 5.7,2013-07-03 15:15:00,
2013-07-03 11:30:00,84.0,75.2,30.00,North,0,2.0,10.0,75,0.00,,,-99.99,WeatherLink 5.7,2013-07-03 15:30:00,
2013-07-03 11:45:00,84.1,75.3,30.00,North,0,1.0,9.0,75,0.00,,,-99.99,WeatherLink 5.7,2013-07-03 15:45:00,
2013-07-03 12:00:00,84.5,75.7,30.00,North,0,1.0,10.0,75,0.00,,,-99.99,WeatherLink 5.7,2013-07-03 16:00:00,
2013-07-03 12:15:00,84.8,75.6,29.99,North,0,1.0,11.0,74,0.00,,,-99.99,WeatherLink 5.7,2013-07-03 16:15:00,
2013-07-03 12:30:00,85.7,75.6,29.99,North,0,1.0,12.0,72,0.00,,,-99.99,WeatherLink 5.7,2013-07-03 16:30:00,
2013-07-03 12:45:00,87.3,76.7,29.99,North,0,1.0,12.0,71,0.00,,,-99.99,WeatherLink 5.7,2013-07-03 16:45:00,
2013-07-03 13:00:00,88.2,76.7,29.99,North,0,0.0,7.0,69,0.00,,,-99.99,WeatherLink 5.7,2013-07-03 17:00:00,
2013-07-03 13:15:00,89.2,77.3,29.98,North,0,1.0,13.0,68,0.00,,,-99.99,WeatherLink 5.7,2013-07-03 17:15:00,
2013-07-03 13:30:00,89.5,76.2,29.97,North,0,1.0,9.0,65,0.00,,,-99.99,WeatherLink 5.7,2013-07-03 17:30:00,
2013-07-03 13:45:00,89.8,76.0,29.96,North,0,1.0,11.0,64,0.00,,,-99.99,WeatherLink 5.7,2013-07-03 17:45:00,
2013-07-03 14:00:00,90.7,76.4,29.96,North,0,1.0,12.0,63,0.00,,,-99.99,WeatherLink 5.7,2013-07-03 18:00:00,
2013-07-03 14:15:00,91.1,75.8,29.95,North,0,3.0,17.0,61,0.00,,,-99.99,WeatherLink 5.7,2013-07-03 18:15:00,
2013-07-03 14:30:00,91.8,75.4,29.94,North,0,1.0,11.0,59,0.00,,,-99.99,WeatherLink 5.7,2013-07-03 18:30:00,
2013-07-03 14:45:00,92.3,75.9,29.94,North,0,1.0,11.0,59,0.00,,,-99.99,WeatherLink 5.7,2013-07-03 18:45:00,
2013-07-03 15:00:00,92.2,75.3,29.94,North,0,0.0,7.0,58,0.00,,,-99.99,WeatherLink 5.7,2013-07-03 19:00:00,
2013-07-03 15:15:00,92.3,74.9,29.95,North,0,1.0,11.0,57,0.00,,,-99.99,WeatherLink 5.7,2013-07-03 19:15:00,
2013-07-03 15:30:00,90.1,74.8,29.98,North,0,4.0,19.0,61,0.03,,,-99.99,WeatherLink 5.7,2013-07-03 19:30:00,
2013-07-03 16:20:00,81.0,70.7,29.98,North,0,2.0,14.0,71,0.06,,,-99.99,WeatherLink 5.7,2013-07-03 20:20:00,
2013-07-03 16:34:00,78.8,69.4,29.97,North,0,1.0,13.0,73,0.21,,,-99.99,WeatherLink 5.7,2013-07-03 20:34:00,
2013-07-03 16:49:00,77.2,69.0,29.97,North,-999,0.0,0.0,76,0.22,,,-99.99,WeatherLink 5.7,2013-07-03 20:49:00,
2013-07-03 17:05:00,76.3,68.9,29.98,North,-999,0.0,0.0,78,0.20,,,-99.99,WeatherLink 5.7,2013-07-03 21:05:00,
2013-07-03 17:19:00,76.0,69.4,29.98,North,0,0.0,10.0,80,0.23,,,-99.99,WeatherLink 5.7,2013-07-03 21:19:00,
2013-07-03 17:34:00,76.0,70.1,29.99,North,0,1.0,9.0,82,0.12,,,-99.99,WeatherLink 5.7,2013-07-03 21:34:00,
2013-07-03 17:49:00,75.9,70.0,29.98,North,0,0.0,10.0,82,0.15,,,-99.99,WeatherLink 5.7,2013-07-03 21:49:00,
2013-07-03 18:04:00,75.8,70.6,29.97,North,0,0.0,1.0,84,0.15,,,-99.99,WeatherLink 5.7,2013-07-03 22:04:00,
2013-07-03 18:19:00,75.9,70.7,29.97,North,-999,0.0,0.0,84,0.10,,,-99.99,WeatherLink 5.7,2013-07-03 22:19:00,
2013-07-03 18:39:00,76.1,70.9,29.97,North,-999,0.0,0.0,84,0.08,,,-99.99,WeatherLink 5.7,2013-07-03 22:39:00,
2013-07-03 18:49:00,76.1,71.3,29.97,North,-999,0.0,0.0,85,0.04,,,-99.99,WeatherLink 5.7,2013-07-03 22:49:00,
2013-07-03 19:04:00,76.2,71.4,29.97,North,0,0.0,1.0,85,0.03,,,-99.99,WeatherLink 5.7,2013-07-03 23:04:00,
2013-07-03 19:19:00,76.3,71.8,29.96,North,-999,0.0,0.0,86,0.02,,,-99.99,WeatherLink 5.7,2013-07-03 23:19:00,
2013-07-03 19:34:00,76.3,71.8,29.96,North,-999,0.0,0.0,86,0.00,,,-99.99,WeatherLink 5.7,2013-07-03 23:34:00,
2013-07-03 19:49:00,76.4,72.2,29.97,North,-999,0.0,0.0,87,0.00,,,-99.99,WeatherLink 5.7,2013-07-03 23:49:00,
2013-07-03 20:05:00,76.5,72.3,29.97,North,-999,0.0,0.0,87,0.00,,,-99.99,WeatherLink 5.7,2013-07-04 00:05:00,
2013-07-03 20:19:00,76.5,72.7,29.98,North,-999,0.0,0.0,88,0.00,,,-99.99,WeatherLink 5.7,2013-07-04 00:19:00,
2013-07-03 20:34:00,76.5,72.7,29.97,North,-999,0.0,0.0,88,0.00,,,-99.99,WeatherLink 5.7,2013-07-04 00:34:00,
2013-07-03 20:49:00,76.5,73.0,29.97,North,-999,0.0,0.0,89,0.00,,,-99.99,WeatherLink 5.7,2013-07-04 00:49:00,
2013-07-03 21:09:00,76.7,73.2,29.97,North,0,0.0,5.0,89,0.00,,,-99.99,WeatherLink 5.7,2013-07-04 01:09:00,
2013-07-03 21:19:00,76.5,73.0,29.98,North,-999,0.0,0.0,89,0.00,,,-99.99,WeatherLink 5.7,2013-07-04 01:19:00,
2013-07-03 21:34:00,76.4,72.9,29.98,North,-999,0.0,0.0,89,0.00,,,-99.99,WeatherLink 5.7,2013-07-04 01:34:00,
2013-07-03 21:49:00,76.2,72.7,29.99,North,-999,0.0,0.0,89,0.00,,,-99.99,WeatherLink 5.7,2013-07-04 01:49:00,
2013-07-03 22:04:00,76.1,72.6,30.00,North,-999,0.0,0.0,89,0.00,,,-99.99,WeatherLink 5.7,2013-07-04 02:04:00,
2013-07-03 22:19:00,75.9,72.8,30.00,North,-999,0.0,0.0,90,0.00,,,-99.99,WeatherLink 5.7,2013-07-04 02:19:00,
2013-07-03 22:34:00,75.6,72.5,30.00,North,-999,0.0,0.0,90,0.00,,,-99.99,WeatherLink 5.7,2013-07-04 02:34:00,
2013-07-03 22:49:00,75.4,72.3,30.00,North,-999,0.0,0.0,90,0.00,,,-99.99,WeatherLink 5.7,2013-07-04 02:49:00,
2013-07-03 23:04:00,75.2,72.1,30.00,North,-999,0.0,0.0,90,0.00,,,-99.99,WeatherLink 5.7,2013-07-04 03:04:00,
2013-07-03 23:19:00,75.1,72.0,30.01,North,-999,0.0,0.0,90,0.00,,,-99.99,WeatherLink 5.7,2013-07-04 03:19:00,
2013-07-03 23:39:00,75.2,72.4,30.01,North,0,0.0,2.0,91,0.00,,,-99.99,WeatherLink 5.7,2013-07-04 03:39:00,
2013-07-03 23:49:00,75.3,72.5,30.01,North,0,0.0,7.0,91,0.00,,,-99.99,WeatherLink 5.7,2013-07-04 03:49:00,